createdAt,value
2023-04-21T15:23:25.471Z,8.65
2023-04-21T15:25:53.550Z,4.97
2023-04-21T15:28:21.287Z,4.38
2023-04-21T15:30:49.420Z,6.00
2023-04-21T15:33:17.506Z,7.65
2023-04-21T15:35:48.359Z,6.32
2023-04-21T15:38:16.255Z,7.93
2023-04-21T15:40:59.532Z,14.80
2023-04-21T15:43:28.858Z,7.30
2023-04-21T15:45:57.152Z,7.68
2023-04-21T15:48:24.977Z,5.03
2023-04-21T15:50:53.166Z,5.13
2023-04-21T15:53:21.000Z,4.43
2023-04-21T15:55:49.217Z,7.43
2023-04-21T15:58:17.263Z,5.18
2023-04-21T16:00:46.041Z,7.82
2023-04-21T16:03:14.123Z,8.57
2023-04-21T16:05:42.603Z,8.27
2023-04-21T16:08:10.699Z,5.78
2023-04-21T16:10:38.647Z,6.63
2023-04-21T16:13:06.410Z,6.50
2023-04-21T16:15:34.533Z,9.45
2023-04-21T16:18:06.275Z,12.88
2023-04-21T16:20:34.440Z,7.75
2023-04-21T16:23:04.803Z,4.68
2023-04-21T16:25:33.589Z,5.60
2023-04-21T16:28:01.320Z,9.20
2023-04-21T16:30:29.314Z,6.53
2023-04-21T16:32:57.045Z,10.35
2023-04-21T16:35:25.058Z,12.75
2023-04-21T16:37:52.846Z,7.05
2023-04-21T16:40:22.399Z,4.43
2023-04-21T16:42:50.186Z,5.93
2023-04-21T16:45:18.242Z,15.60
2023-04-21T16:47:46.089Z,8.00
2023-04-21T16:50:14.267Z,8.25
2023-04-21T16:52:41.997Z,5.55
2023-04-21T16:55:10.419Z,7.68
2023-04-21T16:57:38.326Z,9.98
2023-04-21T17:00:07.154Z,9.88
2023-04-21T17:02:35.249Z,14.13
2023-04-21T17:05:04.173Z,10.18
2023-04-21T17:07:32.190Z,9.73
2023-04-21T17:10:00.432Z,12.43
2023-04-21T17:12:28.473Z,33.97
2023-04-21T17:14:56.488Z,39.53
2023-04-21T17:17:24.445Z,39.25
2023-04-21T17:19:54.429Z,25.52
2023-04-21T17:22:22.305Z,44.13
2023-04-21T17:24:53.693Z,42.85
2023-04-21T17:27:22.008Z,24.20
2023-04-21T17:29:50.163Z,18.73
2023-04-21T17:32:18.083Z,23.77
2023-04-21T17:34:46.205Z,40.78
2023-04-21T17:37:14.270Z,39.20
2023-04-21T17:39:42.299Z,31.77
2023-04-21T17:42:09.974Z,33.13
2023-04-21T17:44:40.067Z,37.42
2023-04-21T17:47:09.030Z,44.67
2023-04-21T17:49:37.501Z,43.75
2023-04-21T17:52:05.946Z,54.63
2023-04-21T17:54:33.999Z,47.17
2023-04-21T17:57:02.389Z,61.88
2023-04-21T17:59:30.728Z,58.95
2023-04-21T18:01:59.118Z,65.68
2023-04-21T18:04:29.868Z,42.05
2023-04-21T18:06:58.968Z,29.70
2023-04-21T18:09:27.390Z,27.95
2023-04-21T18:11:55.160Z,40.25
2023-04-21T18:14:23.739Z,51.38
2023-04-21T18:16:51.476Z,59.72
2023-04-21T18:19:19.557Z,59.78
2023-04-21T18:21:47.430Z,40.10
2023-04-21T18:24:15.968Z,63.33
2023-04-21T18:26:44.149Z,41.90
2023-04-21T18:29:12.147Z,20.50
2023-04-21T18:31:40.118Z,18.83
2023-04-21T18:34:09.037Z,22.50
2023-04-21T18:36:38.498Z,20.67
2023-04-21T18:39:06.774Z,14.35
2023-04-21T18:41:34.481Z,12.77
2023-04-21T18:44:02.521Z,25.15
2023-04-21T18:46:30.292Z,33.95
2023-04-21T18:48:58.346Z,43.40
2023-04-21T18:51:27.773Z,35.10
2023-04-21T18:53:55.787Z,35.90
2023-04-21T18:56:23.639Z,49.70
2023-04-21T18:58:51.597Z,44.45
2023-04-21T19:01:19.801Z,43.15
2023-04-21T19:03:47.960Z,54.13
2023-04-21T19:06:15.738Z,53.38
2023-04-21T19:08:43.865Z,48.97
2023-04-21T19:11:16.259Z,47.58
2023-04-21T19:13:44.359Z,43.95
2023-04-21T19:16:12.746Z,28.92
2023-04-21T19:18:41.604Z,27.15
2023-04-21T19:21:13.623Z,24.23
2023-04-21T19:23:41.967Z,25.80
2023-04-21T19:26:11.930Z,29.80
2023-04-21T19:28:41.117Z,32.60
2023-04-21T19:31:09.337Z,23.55
2023-04-21T19:33:37.731Z,23.20
2023-04-21T19:36:06.508Z,26.00
2023-04-21T19:38:34.427Z,24.00
2023-04-21T19:41:02.210Z,28.58
2023-04-21T19:43:30.150Z,24.77
2023-04-21T19:45:58.765Z,30.83
2023-04-21T19:48:26.991Z,27.55
2023-04-21T19:50:54.750Z,27.27
2023-04-21T19:53:22.684Z,19.23
2023-04-21T19:55:52.531Z,23.30
2023-04-21T19:58:36.298Z,27.55
2023-04-21T20:01:08.048Z,26.90
2023-04-21T20:03:36.359Z,31.23
2023-04-21T20:06:05.021Z,29.40
2023-04-21T20:08:33.128Z,22.23
2023-04-21T20:11:00.930Z,33.42
2023-04-21T20:13:28.953Z,25.15
2023-04-21T20:15:57.359Z,27.65
2023-04-21T20:18:25.624Z,21.63
2023-04-21T20:20:53.411Z,20.80
2023-04-21T20:23:21.502Z,19.77
2023-04-21T20:25:49.181Z,23.00
2023-04-21T20:28:17.246Z,22.55
2023-04-21T20:30:45.091Z,22.40
2023-04-21T20:33:13.220Z,29.45
2023-04-21T20:35:44.153Z,25.58
2023-04-21T20:38:12.330Z,22.13
2023-04-21T20:40:40.863Z,28.90
2023-04-21T20:43:10.244Z,32.63
2023-04-21T20:45:38.830Z,21.27
2023-04-21T20:48:06.773Z,28.80
2023-04-21T20:50:34.514Z,39.78
2023-04-21T20:53:02.555Z,25.48
2023-04-21T20:55:31.345Z,25.27
2023-04-21T20:57:59.537Z,30.88
2023-04-21T21:00:27.595Z,27.67
2023-04-21T21:02:55.743Z,30.17
2023-04-21T21:05:23.546Z,33.95
2023-04-21T21:07:51.606Z,33.88
2023-04-21T21:10:19.419Z,30.25
2023-04-21T21:12:47.431Z,32.03
2023-04-21T21:15:15.222Z,34.45
2023-04-21T21:17:43.229Z,37.20
2023-04-21T21:20:11.362Z,33.10
2023-04-21T21:22:39.401Z,30.75
2023-04-21T21:25:07.326Z,34.35
2023-04-21T21:27:35.454Z,35.75
2023-04-21T21:30:04.132Z,32.35
2023-04-21T21:32:32.353Z,29.83
2023-04-21T21:35:00.037Z,31.73
2023-04-21T21:37:27.992Z,35.00
2023-04-21T21:39:55.683Z,33.28
2023-04-21T21:42:23.693Z,30.92
2023-04-21T21:44:51.420Z,28.02
2023-04-21T21:47:19.405Z,32.17
2023-04-21T21:49:47.035Z,32.70
2023-04-21T21:52:15.192Z,28.08
2023-04-21T21:54:42.922Z,26.67
2023-04-21T21:57:10.917Z,36.47
2023-04-21T21:59:38.915Z,25.17
2023-04-21T22:02:07.080Z,27.13
2023-04-21T22:04:34.924Z,40.95
2023-04-21T22:07:03.714Z,32.72
2023-04-21T22:09:31.622Z,25.05
2023-04-21T22:12:00.968Z,25.90
2023-04-21T22:14:28.725Z,36.08
2023-04-21T22:16:57.473Z,29.77
2023-04-21T22:19:25.531Z,31.85
2023-04-21T22:21:53.789Z,29.38
2023-04-21T22:24:21.639Z,29.92
2023-04-21T22:26:49.616Z,30.27
2023-04-21T22:29:17.499Z,33.10
2023-04-21T22:31:45.818Z,28.65
2023-04-21T22:34:16.733Z,35.22
2023-04-21T22:36:44.801Z,29.20
2023-04-21T22:39:12.539Z,33.10
2023-04-21T22:41:40.967Z,32.72
2023-04-21T22:44:08.924Z,34.88
2023-04-21T22:46:37.884Z,30.77
2023-04-21T22:49:05.706Z,29.23
2023-04-21T22:51:33.845Z,32.03
2023-04-21T22:54:01.750Z,34.03
2023-04-21T22:56:31.006Z,34.10
2023-04-21T22:58:58.745Z,35.35
2023-04-21T23:01:27.235Z,31.25
2023-04-21T23:03:55.064Z,29.25
2023-04-21T23:06:23.011Z,34.35
2023-04-21T23:08:50.691Z,30.02
2023-04-21T23:11:18.687Z,29.48
2023-04-21T23:13:46.442Z,32.65
2023-04-21T23:16:14.737Z,27.58
2023-04-21T23:18:42.415Z,32.05
2023-04-21T23:21:10.772Z,26.35
2023-04-21T23:23:38.426Z,28.35
2023-04-21T23:26:06.467Z,41.90
2023-04-21T23:28:34.115Z,30.58
2023-04-21T23:31:02.235Z,34.50
2023-04-21T23:33:29.895Z,35.92
2023-04-21T23:35:58.108Z,29.73
2023-04-21T23:38:25.766Z,29.80
2023-04-21T23:40:53.865Z,31.88
2023-04-21T23:43:21.683Z,33.50
2023-04-21T23:45:49.664Z,28.95
2023-04-21T23:48:17.403Z,33.15
2023-04-21T23:50:45.577Z,28.60
2023-04-21T23:53:13.346Z,34.72
2023-04-21T23:55:41.465Z,28.10
2023-04-21T23:58:09.121Z,29.98
